sensor_id;sensor_type;location;lat;lon;timestamp;P1;durP1;ratioP1;P2;durP2;ratioP2
21810;SDS011;11067;48.788;9.208;2023-03-03T00:00:10;43.65;;;21.65;;
21810;SDS011;11067;48.788;9.208;2023-03-03T00:02:36;42.08;;;21.92;;
21810;SDS011;11067;48.788;9.208;2023-03-03T00:05:02;45.97;;;22.50;;
21810;SDS011;11067;48.788;9.208;2023-03-03T00:07:28;45.67;;;21.35;;
21810;SDS011;11067;48.788;9.208;2023-03-03T00:09:54;48.38;;;21.95;;
21810;SDS011;11067;48.788;9.208;2023-03-03T00:14:46;41.42;;;20.00;;
21810;SDS011;11067;48.788;9.208;2023-03-03T00:17:15;47.60;;;21.90;;
21810;SDS011;11067;48.788;9.208;2023-03-03T00:19:43;41.20;;;21.10;;
21810;SDS011;11067;48.788;9.208;2023-03-03T00:22:53;41.50;;;21.38;;
21810;SDS011;11067;48.788;9.208;2023-03-03T00:25:20;41.90;;;21.27;;
21810;SDS011;11067;48.788;9.208;2023-03-03T00:27:49;40.35;;;20.17;;
21810;SDS011;11067;48.788;9.208;2023-03-03T00:30:24;44.53;;;20.02;;
21810;SDS011;11067;48.788;9.208;2023-03-03T00:32:51;38.70;;;20.10;;
21810;SDS011;11067;48.788;9.208;2023-03-03T00:37:43;41.78;;;20.58;;
21810;SDS011;11067;48.788;9.208;2023-03-03T00:40:19;38.83;;;20.65;;
21810;SDS011;11067;48.788;9.208;2023-03-03T00:42:47;45.35;;;20.40;;
21810;SDS011;11067;48.788;9.208;2023-03-03T00:47:43;41.97;;;20.48;;
21810;SDS011;11067;48.788;9.208;2023-03-03T00:52:36;40.88;;;20.48;;
21810;SDS011;11067;48.788;9.208;2023-03-03T00:55:03;39.58;;;19.95;;
21810;SDS011;11067;48.788;9.208;2023-03-03T00:57:29;39.97;;;19.73;;
21810;SDS011;11067;48.788;9.208;2023-03-03T00:59:55;40.60;;;20.77;;
21810;SDS011;11067;48.788;9.208;2023-03-03T01:02:21;39.20;;;19.52;;
21810;SDS011;11067;48.788;9.208;2023-03-03T01:04:49;36.20;;;19.50;;
21810;SDS011;11067;48.788;9.208;2023-03-03T01:07:15;42.80;;;19.98;;
21810;SDS011;11067;48.788;9.208;2023-03-03T01:09:42;39.83;;;20.27;;
21810;SDS011;11067;48.788;9.208;2023-03-03T01:12:08;40.83;;;20.73;;
21810;SDS011;11067;48.788;9.208;2023-03-03T01:14:34;41.55;;;21.17;;
21810;SDS011;11067;48.788;9.208;2023-03-03T01:17:00;41.30;;;21.38;;
21810;SDS011;11067;48.788;9.208;2023-03-03T01:19:26;39.17;;;20.05;;
21810;SDS011;11067;48.788;9.208;2023-03-03T01:21:52;41.67;;;20.75;;
21810;SDS011;11067;48.788;9.208;2023-03-03T01:24:18;40.47;;;21.53;;
21810;SDS011;11067;48.788;9.208;2023-03-03T01:26:44;42.80;;;22.02;;
21810;SDS011;11067;48.788;9.208;2023-03-03T01:29:10;46.40;;;22.33;;
21810;SDS011;11067;48.788;9.208;2023-03-03T01:31:36;43.23;;;22.37;;
21810;SDS011;11067;48.788;9.208;2023-03-03T01:34:02;43.53;;;22.35;;
21810;SDS011;11067;48.788;9.208;2023-03-03T01:36:28;49.58;;;22.58;;
21810;SDS011;11067;48.788;9.208;2023-03-03T01:38:54;49.85;;;23.73;;
21810;SDS011;11067;48.788;9.208;2023-03-03T01:41:20;50.47;;;23.17;;
21810;SDS011;11067;48.788;9.208;2023-03-03T01:43:47;49.30;;;23.80;;
21810;SDS011;11067;48.788;9.208;2023-03-03T01:48:43;47.17;;;22.50;;
21810;SDS011;11067;48.788;9.208;2023-03-03T01:51:14;47.37;;;23.67;;
21810;SDS011;11067;48.788;9.208;2023-03-03T01:53:49;42.80;;;22.90;;
21810;SDS011;11067;48.788;9.208;2023-03-03T01:56:16;49.47;;;24.35;;
21810;SDS011;11067;48.788;9.208;2023-03-03T01:58:43;52.05;;;24.70;;
21810;SDS011;11067;48.788;9.208;2023-03-03T02:01:11;46.45;;;23.88;;
21810;SDS011;11067;48.788;9.208;2023-03-03T02:03:38;49.22;;;22.70;;
21810;SDS011;11067;48.788;9.208;2023-03-03T02:06:05;47.03;;;23.27;;
21810;SDS011;11067;48.788;9.208;2023-03-03T02:08:35;45.65;;;22.42;;
21810;SDS011;11067;48.788;9.208;2023-03-03T02:11:03;48.10;;;22.30;;
21810;SDS011;11067;48.788;9.208;2023-03-03T02:13:30;42.75;;;22.35;;
21810;SDS011;11067;48.788;9.208;2023-03-03T02:15:56;45.30;;;22.90;;
21810;SDS011;11067;48.788;9.208;2023-03-03T02:18:23;44.37;;;22.20;;
21810;SDS011;11067;48.788;9.208;2023-03-03T02:26:09;45.60;;;22.52;;
21810;SDS011;11067;48.788;9.208;2023-03-03T02:28:37;44.38;;;23.05;;
21810;SDS011;11067;48.788;9.208;2023-03-03T02:31:04;46.00;;;21.80;;
21810;SDS011;11067;48.788;9.208;2023-03-03T02:33:31;44.22;;;22.42;;
21810;SDS011;11067;48.788;9.208;2023-03-03T02:35:57;46.17;;;22.57;;
21810;SDS011;11067;48.788;9.208;2023-03-03T02:38:27;47.03;;;22.73;;
21810;SDS011;11067;48.788;9.208;2023-03-03T02:43:36;46.42;;;23.00;;
21810;SDS011;11067;48.788;9.208;2023-03-03T02:46:03;48.00;;;22.97;;
21810;SDS011;11067;48.788;9.208;2023-03-03T02:48:29;44.55;;;22.10;;
21810;SDS011;11067;48.788;9.208;2023-03-03T02:50:55;41.88;;;22.38;;
21810;SDS011;11067;48.788;9.208;2023-03-03T02:53:21;42.53;;;22.02;;
21810;SDS011;11067;48.788;9.208;2023-03-03T02:55:47;46.80;;;22.15;;
21810;SDS011;11067;48.788;9.208;2023-03-03T02:58:13;42.90;;;22.45;;
21810;SDS011;11067;48.788;9.208;2023-03-03T03:00:39;43.00;;;21.83;;
21810;SDS011;11067;48.788;9.208;2023-03-03T03:03:05;42.88;;;21.15;;
21810;SDS011;11067;48.788;9.208;2023-03-03T03:05:31;42.75;;;21.17;;
21810;SDS011;11067;48.788;9.208;2023-03-03T03:07:57;46.03;;;22.75;;
21810;SDS011;11067;48.788;9.208;2023-03-03T03:10:23;41.20;;;21.75;;
21810;SDS011;11067;48.788;9.208;2023-03-03T03:12:49;43.03;;;22.00;;
21810;SDS011;11067;48.788;9.208;2023-03-03T03:15:15;39.30;;;20.20;;
21810;SDS011;11067;48.788;9.208;2023-03-03T03:17:41;45.30;;;22.42;;
21810;SDS011;11067;48.788;9.208;2023-03-03T03:20:07;40.10;;;21.38;;
21810;SDS011;11067;48.788;9.208;2023-03-03T03:22:33;40.17;;;20.70;;
21810;SDS011;11067;48.788;9.208;2023-03-03T03:24:59;44.63;;;21.98;;
21810;SDS011;11067;48.788;9.208;2023-03-03T03:27:25;39.97;;;21.27;;
21810;SDS011;11067;48.788;9.208;2023-03-03T03:29:51;41.20;;;22.08;;
21810;SDS011;11067;48.788;9.208;2023-03-03T03:32:17;40.40;;;20.43;;
21810;SDS011;11067;48.788;9.208;2023-03-03T03:34:43;39.47;;;20.40;;
21810;SDS011;11067;48.788;9.208;2023-03-03T03:37:09;39.72;;;21.25;;
21810;SDS011;11067;48.788;9.208;2023-03-03T03:39:35;41.08;;;20.70;;
21810;SDS011;11067;48.788;9.208;2023-03-03T03:42:01;42.88;;;21.15;;
21810;SDS011;11067;48.788;9.208;2023-03-03T03:44:27;40.22;;;20.20;;
21810;SDS011;11067;48.788;9.208;2023-03-03T03:46:53;40.13;;;20.90;;
21810;SDS011;11067;48.788;9.208;2023-03-03T03:49:19;40.47;;;21.97;;
21810;SDS011;11067;48.788;9.208;2023-03-03T03:51:45;41.95;;;20.63;;
21810;SDS011;11067;48.788;9.208;2023-03-03T03:54:11;38.85;;;20.23;;
21810;SDS011;11067;48.788;9.208;2023-03-03T03:56:37;39.40;;;20.45;;
21810;SDS011;11067;48.788;9.208;2023-03-03T03:59:04;38.25;;;19.98;;
21810;SDS011;11067;48.788;9.208;2023-03-03T04:01:30;41.65;;;20.90;;
21810;SDS011;11067;48.788;9.208;2023-03-03T04:03:56;37.03;;;20.02;;
21810;SDS011;11067;48.788;9.208;2023-03-03T04:06:22;41.63;;;20.87;;
21810;SDS011;11067;48.788;9.208;2023-03-03T04:08:48;42.55;;;20.77;;
21810;SDS011;11067;48.788;9.208;2023-03-03T04:11:14;44.20;;;21.70;;
21810;SDS011;11067;48.788;9.208;2023-03-03T04:13:40;43.53;;;21.83;;
21810;SDS011;11067;48.788;9.208;2023-03-03T04:16:06;47.75;;;21.58;;
21810;SDS011;11067;48.788;9.208;2023-03-03T04:18:32;41.30;;;21.87;;
21810;SDS011;11067;48.788;9.208;2023-03-03T04:20:58;41.83;;;21.33;;
21810;SDS011;11067;48.788;9.208;2023-03-03T04:23:24;44.60;;;21.50;;
21810;SDS011;11067;48.788;9.208;2023-03-03T04:25:50;42.38;;;22.00;;
21810;SDS011;11067;48.788;9.208;2023-03-03T04:28:16;44.43;;;21.77;;
21810;SDS011;11067;48.788;9.208;2023-03-03T04:30:43;41.90;;;22.20;;
21810;SDS011;11067;48.788;9.208;2023-03-03T04:33:09;47.38;;;23.10;;
21810;SDS011;11067;48.788;9.208;2023-03-03T04:35:35;45.70;;;23.08;;
21810;SDS011;11067;48.788;9.208;2023-03-03T04:38:01;41.20;;;22.17;;
21810;SDS011;11067;48.788;9.208;2023-03-03T04:40:27;44.63;;;23.00;;
21810;SDS011;11067;48.788;9.208;2023-03-03T04:42:53;44.20;;;21.98;;
21810;SDS011;11067;48.788;9.208;2023-03-03T04:45:18;48.10;;;22.83;;
21810;SDS011;11067;48.788;9.208;2023-03-03T04:47:44;43.03;;;21.55;;
21810;SDS011;11067;48.788;9.208;2023-03-03T04:50:10;43.95;;;23.63;;
21810;SDS011;11067;48.788;9.208;2023-03-03T04:52:36;44.67;;;22.77;;
21810;SDS011;11067;48.788;9.208;2023-03-03T04:55:03;41.83;;;21.35;;
21810;SDS011;11067;48.788;9.208;2023-03-03T04:57:29;43.05;;;22.90;;
21810;SDS011;11067;48.788;9.208;2023-03-03T04:59:56;44.47;;;22.77;;
21810;SDS011;11067;48.788;9.208;2023-03-03T05:02:22;45.53;;;23.00;;
21810;SDS011;11067;48.788;9.208;2023-03-03T05:04:48;50.17;;;23.80;;
21810;SDS011;11067;48.788;9.208;2023-03-03T05:07:14;41.53;;;22.40;;
21810;SDS011;11067;48.788;9.208;2023-03-03T05:09:40;47.13;;;23.33;;
21810;SDS011;11067;48.788;9.208;2023-03-03T05:12:05;43.80;;;22.42;;
21810;SDS011;11067;48.788;9.208;2023-03-03T05:14:31;48.58;;;22.88;;
21810;SDS011;11067;48.788;9.208;2023-03-03T05:16:58;50.85;;;24.33;;
21810;SDS011;11067;48.788;9.208;2023-03-03T05:19:23;46.72;;;23.38;;
21810;SDS011;11067;48.788;9.208;2023-03-03T05:21:50;46.78;;;23.55;;
21810;SDS011;11067;48.788;9.208;2023-03-03T05:24:16;45.90;;;23.42;;
21810;SDS011;11067;48.788;9.208;2023-03-03T05:26:42;51.03;;;22.77;;
21810;SDS011;11067;48.788;9.208;2023-03-03T05:29:08;48.15;;;23.17;;
21810;SDS011;11067;48.788;9.208;2023-03-03T05:31:34;45.17;;;22.20;;
21810;SDS011;11067;48.788;9.208;2023-03-03T05:34:00;42.85;;;22.23;;
21810;SDS011;11067;48.788;9.208;2023-03-03T05:36:26;52.05;;;24.27;;
21810;SDS011;11067;48.788;9.208;2023-03-03T05:38:52;47.80;;;24.07;;
21810;SDS011;11067;48.788;9.208;2023-03-03T05:41:18;50.17;;;22.88;;
21810;SDS011;11067;48.788;9.208;2023-03-03T05:43:44;47.73;;;22.53;;
21810;SDS011;11067;48.788;9.208;2023-03-03T05:46:10;47.92;;;23.80;;
21810;SDS011;11067;48.788;9.208;2023-03-03T05:48:36;46.15;;;23.88;;
21810;SDS011;11067;48.788;9.208;2023-03-03T05:51:02;46.15;;;22.17;;
21810;SDS011;11067;48.788;9.208;2023-03-03T05:53:28;45.03;;;23.27;;
21810;SDS011;11067;48.788;9.208;2023-03-03T05:55:54;48.70;;;23.55;;
21810;SDS011;11067;48.788;9.208;2023-03-03T05:58:20;47.87;;;23.73;;
21810;SDS011;11067;48.788;9.208;2023-03-03T06:00:46;45.92;;;22.05;;
21810;SDS011;11067;48.788;9.208;2023-03-03T06:03:12;47.88;;;22.42;;
21810;SDS011;11067;48.788;9.208;2023-03-03T06:05:38;45.27;;;20.93;;
21810;SDS011;11067;48.788;9.208;2023-03-03T06:08:04;43.97;;;21.52;;
21810;SDS011;11067;48.788;9.208;2023-03-03T06:10:30;40.65;;;20.40;;
21810;SDS011;11067;48.788;9.208;2023-03-03T06:12:56;40.85;;;20.73;;
21810;SDS011;11067;48.788;9.208;2023-03-03T06:15:22;42.85;;;19.65;;
21810;SDS011;11067;48.788;9.208;2023-03-03T06:17:48;35.67;;;17.80;;
21810;SDS011;11067;48.788;9.208;2023-03-03T06:20:13;38.92;;;19.50;;
21810;SDS011;11067;48.788;9.208;2023-03-03T06:22:39;35.28;;;18.52;;
21810;SDS011;11067;48.788;9.208;2023-03-03T06:25:05;36.45;;;18.40;;
21810;SDS011;11067;48.788;9.208;2023-03-03T06:27:30;28.75;;;16.90;;
21810;SDS011;11067;48.788;9.208;2023-03-03T06:29:56;37.35;;;18.83;;
21810;SDS011;11067;48.788;9.208;2023-03-03T06:32:21;32.13;;;16.87;;
21810;SDS011;11067;48.788;9.208;2023-03-03T06:34:47;33.50;;;17.73;;
21810;SDS011;11067;48.788;9.208;2023-03-03T06:37:12;33.50;;;17.70;;
21810;SDS011;11067;48.788;9.208;2023-03-03T06:39:38;30.60;;;16.60;;
21810;SDS011;11067;48.788;9.208;2023-03-03T06:42:03;33.78;;;17.02;;
21810;SDS011;11067;48.788;9.208;2023-03-03T06:44:29;34.90;;;16.23;;
21810;SDS011;11067;48.788;9.208;2023-03-03T06:46:54;30.40;;;17.33;;
21810;SDS011;11067;48.788;9.208;2023-03-03T06:49:21;34.35;;;17.60;;
21810;SDS011;11067;48.788;9.208;2023-03-03T06:51:47;32.00;;;16.50;;
21810;SDS011;11067;48.788;9.208;2023-03-03T06:54:14;33.63;;;16.87;;
21810;SDS011;11067;48.788;9.208;2023-03-03T06:56:41;35.22;;;17.63;;
21810;SDS011;11067;48.788;9.208;2023-03-03T06:59:15;31.98;;;16.70;;
21810;SDS011;11067;48.788;9.208;2023-03-03T07:01:43;34.23;;;17.23;;
21810;SDS011;11067;48.788;9.208;2023-03-03T07:04:31;36.10;;;17.52;;
21810;SDS011;11067;48.788;9.208;2023-03-03T07:06:57;35.75;;;17.00;;
21810;SDS011;11067;48.788;9.208;2023-03-03T07:09:32;32.58;;;16.55;;
21810;SDS011;11067;48.788;9.208;2023-03-03T07:12:01;33.50;;;17.07;;
21810;SDS011;11067;48.788;9.208;2023-03-03T07:15:33;34.25;;;16.83;;
21810;SDS011;11067;48.788;9.208;2023-03-03T07:17:49;34.93;;;17.33;;
21810;SDS011;11067;48.788;9.208;2023-03-03T07:20:20;35.67;;;17.43;;
21810;SDS011;11067;48.788;9.208;2023-03-03T07:22:54;35.95;;;17.50;;
21810;SDS011;11067;48.788;9.208;2023-03-03T07:25:29;35.53;;;17.55;;
21810;SDS011;11067;48.788;9.208;2023-03-03T07:27:59;37.00;;;18.40;;
21810;SDS011;11067;48.788;9.208;2023-03-03T07:30:40;36.03;;;17.15;;
21810;SDS011;11067;48.788;9.208;2023-03-03T07:33:07;33.92;;;17.63;;
21810;SDS011;11067;48.788;9.208;2023-03-03T07:35:53;34.22;;;16.67;;
21810;SDS011;11067;48.788;9.208;2023-03-03T07:38:27;35.13;;;17.35;;
21810;SDS011;11067;48.788;9.208;2023-03-03T07:41:16;35.83;;;17.73;;
21810;SDS011;11067;48.788;9.208;2023-03-03T07:43:51;35.35;;;17.48;;
21810;SDS011;11067;48.788;9.208;2023-03-03T07:48:51;33.95;;;17.30;;
21810;SDS011;11067;48.788;9.208;2023-03-03T07:51:22;35.55;;;17.38;;
21810;SDS011;11067;48.788;9.208;2023-03-03T07:53:51;37.38;;;17.98;;
21810;SDS011;11067;48.788;9.208;2023-03-03T07:56:37;34.60;;;17.30;;
21810;SDS011;11067;48.788;9.208;2023-03-03T07:59:15;36.37;;;18.13;;
21810;SDS011;11067;48.788;9.208;2023-03-03T08:01:45;31.53;;;17.17;;
21810;SDS011;11067;48.788;9.208;2023-03-03T08:04:17;32.33;;;16.58;;
21810;SDS011;11067;48.788;9.208;2023-03-03T08:06:49;33.80;;;17.10;;
21810;SDS011;11067;48.788;9.208;2023-03-03T08:11:50;32.53;;;17.50;;
21810;SDS011;11067;48.788;9.208;2023-03-03T08:14:30;36.65;;;17.17;;
21810;SDS011;11067;48.788;9.208;2023-03-03T08:16:58;33.10;;;16.88;;
21810;SDS011;11067;48.788;9.208;2023-03-03T08:19:25;31.90;;;17.02;;
21810;SDS011;11067;48.788;9.208;2023-03-03T08:21:55;31.20;;;16.43;;
21810;SDS011;11067;48.788;9.208;2023-03-03T08:24:43;31.70;;;16.70;;
21810;SDS011;11067;48.788;9.208;2023-03-03T08:27:09;38.58;;;17.38;;
21810;SDS011;11067;48.788;9.208;2023-03-03T08:29:35;35.40;;;17.65;;
21810;SDS011;11067;48.788;9.208;2023-03-03T08:32:01;36.83;;;17.90;;
21810;SDS011;11067;48.788;9.208;2023-03-03T08:34:27;34.92;;;17.27;;
21810;SDS011;11067;48.788;9.208;2023-03-03T08:36:53;36.03;;;17.13;;
21810;SDS011;11067;48.788;9.208;2023-03-03T08:39:22;34.60;;;17.05;;
21810;SDS011;11067;48.788;9.208;2023-03-03T08:41:47;35.83;;;17.87;;
21810;SDS011;11067;48.788;9.208;2023-03-03T08:44:13;30.47;;;16.90;;
21810;SDS011;11067;48.788;9.208;2023-03-03T08:46:39;29.97;;;17.07;;
21810;SDS011;11067;48.788;9.208;2023-03-03T08:49:04;33.10;;;17.33;;
21810;SDS011;11067;48.788;9.208;2023-03-03T08:51:30;33.30;;;18.30;;
21810;SDS011;11067;48.788;9.208;2023-03-03T08:53:58;37.60;;;18.45;;
21810;SDS011;11067;48.788;9.208;2023-03-03T08:56:23;38.17;;;19.33;;
21810;SDS011;11067;48.788;9.208;2023-03-03T08:58:49;36.20;;;17.25;;
21810;SDS011;11067;48.788;9.208;2023-03-03T09:01:14;47.58;;;24.33;;
21810;SDS011;11067;48.788;9.208;2023-03-03T09:03:41;30.25;;;17.42;;
21810;SDS011;11067;48.788;9.208;2023-03-03T09:06:07;35.42;;;18.60;;
21810;SDS011;11067;48.788;9.208;2023-03-03T09:08:33;38.30;;;18.47;;
21810;SDS011;11067;48.788;9.208;2023-03-03T09:10:59;38.10;;;18.90;;
21810;SDS011;11067;48.788;9.208;2023-03-03T09:13:24;33.63;;;18.20;;
21810;SDS011;11067;48.788;9.208;2023-03-03T09:15:53;32.38;;;17.60;;
21810;SDS011;11067;48.788;9.208;2023-03-03T09:18:20;36.28;;;17.58;;
21810;SDS011;11067;48.788;9.208;2023-03-03T09:20:53;33.83;;;17.15;;
21810;SDS011;11067;48.788;9.208;2023-03-03T09:23:34;34.50;;;17.30;;
21810;SDS011;11067;48.788;9.208;2023-03-03T09:28:35;33.72;;;17.48;;
21810;SDS011;11067;48.788;9.208;2023-03-03T09:31:01;32.70;;;18.00;;
21810;SDS011;11067;48.788;9.208;2023-03-03T09:33:41;31.02;;;15.88;;
21810;SDS011;11067;48.788;9.208;2023-03-03T09:38:49;31.52;;;16.10;;
21810;SDS011;11067;48.788;9.208;2023-03-03T09:49:24;31.73;;;17.23;;
21810;SDS011;11067;48.788;9.208;2023-03-03T09:54:53;29.27;;;16.93;;
21810;SDS011;11067;48.788;9.208;2023-03-03T09:57:29;28.77;;;17.73;;
21810;SDS011;11067;48.788;9.208;2023-03-03T10:00:13;29.98;;;16.40;;
21810;SDS011;11067;48.788;9.208;2023-03-03T10:05:47;29.33;;;16.52;;
21810;SDS011;11067;48.788;9.208;2023-03-03T10:08:31;32.85;;;16.75;;
21810;SDS011;11067;48.788;9.208;2023-03-03T10:24:41;33.42;;;17.88;;
21810;SDS011;11067;48.788;9.208;2023-03-03T10:33:35;32.60;;;18.45;;
21810;SDS011;11067;48.788;9.208;2023-03-03T10:36:45;33.15;;;18.55;;
21810;SDS011;11067;48.788;9.208;2023-03-03T10:39:14;32.88;;;18.38;;
21810;SDS011;11067;48.788;9.208;2023-03-03T10:44:57;33.85;;;17.88;;
21810;SDS011;11067;48.788;9.208;2023-03-03T10:56:14;33.17;;;18.60;;
21810;SDS011;11067;48.788;9.208;2023-03-03T10:59:01;31.07;;;17.50;;
21810;SDS011;11067;48.788;9.208;2023-03-03T11:01:43;31.85;;;17.92;;
21810;SDS011;11067;48.788;9.208;2023-03-03T11:08:14;34.45;;;18.52;;
21810;SDS011;11067;48.788;9.208;2023-03-03T11:13:11;34.40;;;18.92;;
21810;SDS011;11067;48.788;9.208;2023-03-03T11:15:43;30.07;;;17.67;;
21810;SDS011;11067;48.788;9.208;2023-03-03T11:21:02;35.35;;;19.40;;
21810;SDS011;11067;48.788;9.208;2023-03-03T11:26:46;32.60;;;18.70;;
21810;SDS011;11067;48.788;9.208;2023-03-03T11:35:24;34.70;;;18.90;;
21810;SDS011;11067;48.788;9.208;2023-03-03T11:42:54;32.58;;;17.42;;
21810;SDS011;11067;48.788;9.208;2023-03-03T11:45:38;32.47;;;18.17;;
21810;SDS011;11067;48.788;9.208;2023-03-03T11:48:11;36.38;;;18.33;;
21810;SDS011;11067;48.788;9.208;2023-03-03T11:50:46;32.53;;;18.33;;
21810;SDS011;11067;48.788;9.208;2023-03-03T11:53:49;35.03;;;18.30;;
21810;SDS011;11067;48.788;9.208;2023-03-03T11:56:45;30.50;;;17.73;;
21810;SDS011;11067;48.788;9.208;2023-03-03T11:59:16;26.55;;;16.92;;
21810;SDS011;11067;48.788;9.208;2023-03-03T12:02:11;33.70;;;18.27;;
21810;SDS011;11067;48.788;9.208;2023-03-03T12:04:58;31.13;;;17.52;;
21810;SDS011;11067;48.788;9.208;2023-03-03T12:13:29;30.37;;;17.43;;
21810;SDS011;11067;48.788;9.208;2023-03-03T12:16:21;31.40;;;17.67;;
21810;SDS011;11067;48.788;9.208;2023-03-03T12:19:19;29.92;;;17.60;;
21810;SDS011;11067;48.788;9.208;2023-03-03T12:24:24;32.35;;;18.15;;
21810;SDS011;11067;48.788;9.208;2023-03-03T12:27:15;34.83;;;17.83;;
21810;SDS011;11067;48.788;9.208;2023-03-03T12:38:23;29.55;;;15.93;;
21810;SDS011;11067;48.788;9.208;2023-03-03T12:41:02;28.35;;;16.60;;
21810;SDS011;11067;48.788;9.208;2023-03-03T12:46:06;28.93;;;16.07;;
21810;SDS011;11067;48.788;9.208;2023-03-03T12:56:44;34.03;;;16.40;;
21810;SDS011;11067;48.788;9.208;2023-03-03T13:15:43;30.80;;;16.83;;
21810;SDS011;11067;48.788;9.208;2023-03-03T13:24:10;26.85;;;16.55;;
21810;SDS011;11067;48.788;9.208;2023-03-03T13:26:53;29.10;;;15.93;;
21810;SDS011;11067;48.788;9.208;2023-03-03T13:32:52;26.88;;;16.33;;
21810;SDS011;11067;48.788;9.208;2023-03-03T13:35:31;27.40;;;16.07;;
21810;SDS011;11067;48.788;9.208;2023-03-03T13:38:13;27.27;;;15.48;;
21810;SDS011;11067;48.788;9.208;2023-03-03T13:40:47;26.97;;;16.37;;
21810;SDS011;11067;48.788;9.208;2023-03-03T13:43:20;28.02;;;16.10;;
21810;SDS011;11067;48.788;9.208;2023-03-03T14:05:47;26.67;;;15.50;;
21810;SDS011;11067;48.788;9.208;2023-03-03T14:13:39;30.50;;;15.63;;
21810;SDS011;11067;48.788;9.208;2023-03-03T14:19:29;27.23;;;16.42;;
21810;SDS011;11067;48.788;9.208;2023-03-03T14:22:21;28.73;;;16.52;;
21810;SDS011;11067;48.788;9.208;2023-03-03T14:24:55;27.55;;;16.33;;
21810;SDS011;11067;48.788;9.208;2023-03-03T14:27:26;31.63;;;16.80;;
21810;SDS011;11067;48.788;9.208;2023-03-03T14:29:58;27.67;;;16.67;;
21810;SDS011;11067;48.788;9.208;2023-03-03T14:32:26;33.00;;;17.73;;
21810;SDS011;11067;48.788;9.208;2023-03-03T14:34:58;30.30;;;16.70;;
21810;SDS011;11067;48.788;9.208;2023-03-03T14:37:42;30.70;;;16.67;;
21810;SDS011;11067;48.788;9.208;2023-03-03T14:40:19;30.80;;;17.95;;
21810;SDS011;11067;48.788;9.208;2023-03-03T14:48:16;28.83;;;17.02;;
21810;SDS011;11067;48.788;9.208;2023-03-03T14:50:59;29.15;;;17.58;;
21810;SDS011;11067;48.788;9.208;2023-03-03T14:53:57;29.52;;;16.73;;
21810;SDS011;11067;48.788;9.208;2023-03-03T14:59:14;28.75;;;16.20;;
21810;SDS011;11067;48.788;9.208;2023-03-03T15:01:45;33.22;;;17.05;;
21810;SDS011;11067;48.788;9.208;2023-03-03T15:09:26;28.50;;;16.87;;
21810;SDS011;11067;48.788;9.208;2023-03-03T15:11:57;30.05;;;16.95;;
21810;SDS011;11067;48.788;9.208;2023-03-03T15:14:46;32.30;;;18.25;;
21810;SDS011;11067;48.788;9.208;2023-03-03T15:22:54;30.85;;;18.23;;
21810;SDS011;11067;48.788;9.208;2023-03-03T15:27:59;30.90;;;17.33;;
21810;SDS011;11067;48.788;9.208;2023-03-03T15:30:47;29.42;;;17.35;;
21810;SDS011;11067;48.788;9.208;2023-03-03T15:33:25;32.13;;;17.42;;
21810;SDS011;11067;48.788;9.208;2023-03-03T15:41:56;35.55;;;17.80;;
21810;SDS011;11067;48.788;9.208;2023-03-03T15:44:45;36.00;;;19.08;;
21810;SDS011;11067;48.788;9.208;2023-03-03T15:50:39;29.55;;;16.90;;
21810;SDS011;11067;48.788;9.208;2023-03-03T16:01:33;34.92;;;17.70;;
21810;SDS011;11067;48.788;9.208;2023-03-03T16:04:13;30.87;;;17.00;;
21810;SDS011;11067;48.788;9.208;2023-03-03T16:07:04;34.45;;;18.08;;
21810;SDS011;11067;48.788;9.208;2023-03-03T16:12:46;32.53;;;16.98;;
21810;SDS011;11067;48.788;9.208;2023-03-03T16:15:27;31.33;;;17.10;;
21810;SDS011;11067;48.788;9.208;2023-03-03T16:24:05;34.92;;;19.58;;
21810;SDS011;11067;48.788;9.208;2023-03-03T16:27:22;30.47;;;17.03;;
21810;SDS011;11067;48.788;9.208;2023-03-03T16:32:42;28.35;;;15.93;;
21810;SDS011;11067;48.788;9.208;2023-03-03T16:35:17;31.55;;;17.77;;
21810;SDS011;11067;48.788;9.208;2023-03-03T16:37:53;32.78;;;18.05;;
21810;SDS011;11067;48.788;9.208;2023-03-03T16:40:29;31.10;;;17.98;;
21810;SDS011;11067;48.788;9.208;2023-03-03T16:42:58;33.67;;;17.50;;
21810;SDS011;11067;48.788;9.208;2023-03-03T16:45:32;30.92;;;17.50;;
21810;SDS011;11067;48.788;9.208;2023-03-03T16:48:07;31.63;;;18.00;;
21810;SDS011;11067;48.788;9.208;2023-03-03T16:50:49;31.02;;;17.25;;
21810;SDS011;11067;48.788;9.208;2023-03-03T16:53:47;32.25;;;17.05;;
21810;SDS011;11067;48.788;9.208;2023-03-03T16:56:35;33.57;;;17.87;;
21810;SDS011;11067;48.788;9.208;2023-03-03T17:05:16;34.97;;;17.92;;
21810;SDS011;11067;48.788;9.208;2023-03-03T17:10:29;38.33;;;17.13;;
21810;SDS011;11067;48.788;9.208;2023-03-03T17:13:26;33.25;;;17.38;;
21810;SDS011;11067;48.788;9.208;2023-03-03T17:16:29;34.10;;;17.35;;
21810;SDS011;11067;48.788;9.208;2023-03-03T17:22:05;36.35;;;18.50;;
21810;SDS011;11067;48.788;9.208;2023-03-03T17:25:07;37.53;;;18.35;;
21810;SDS011;11067;48.788;9.208;2023-03-03T17:27:49;31.73;;;16.97;;
21810;SDS011;11067;48.788;9.208;2023-03-03T17:36:12;32.90;;;17.13;;
21810;SDS011;11067;48.788;9.208;2023-03-03T17:39:03;35.47;;;18.38;;
21810;SDS011;11067;48.788;9.208;2023-03-03T17:41:42;34.58;;;17.20;;
21810;SDS011;11067;48.788;9.208;2023-03-03T17:56:15;34.67;;;17.58;;
21810;SDS011;11067;48.788;9.208;2023-03-03T18:04:35;34.17;;;17.90;;
21810;SDS011;11067;48.788;9.208;2023-03-03T18:12:52;37.42;;;19.52;;
21810;SDS011;11067;48.788;9.208;2023-03-03T18:15:28;36.20;;;18.83;;
21810;SDS011;11067;48.788;9.208;2023-03-03T18:18:04;38.53;;;20.13;;
21810;SDS011;11067;48.788;9.208;2023-03-03T18:20:52;36.47;;;18.40;;
21810;SDS011;11067;48.788;9.208;2023-03-03T18:23:33;35.75;;;19.63;;
21810;SDS011;11067;48.788;9.208;2023-03-03T18:29:07;40.40;;;19.67;;
21810;SDS011;11067;48.788;9.208;2023-03-03T18:32:15;38.25;;;19.60;;
21810;SDS011;11067;48.788;9.208;2023-03-03T18:34:41;37.58;;;18.65;;
21810;SDS011;11067;48.788;9.208;2023-03-03T18:37:08;38.42;;;19.88;;
21810;SDS011;11067;48.788;9.208;2023-03-03T18:42:40;34.08;;;19.27;;
21810;SDS011;11067;48.788;9.208;2023-03-03T18:50:37;42.80;;;20.33;;
21810;SDS011;11067;48.788;9.208;2023-03-03T18:58:32;38.97;;;19.47;;
21810;SDS011;11067;48.788;9.208;2023-03-03T19:01:02;41.15;;;20.15;;
21810;SDS011;11067;48.788;9.208;2023-03-03T19:08:59;32.95;;;19.17;;
21810;SDS011;11067;48.788;9.208;2023-03-03T19:11:31;37.90;;;19.60;;
21810;SDS011;11067;48.788;9.208;2023-03-03T19:22:48;39.00;;;20.52;;
21810;SDS011;11067;48.788;9.208;2023-03-03T19:25:24;37.40;;;19.85;;
21810;SDS011;11067;48.788;9.208;2023-03-03T19:27:56;37.00;;;20.02;;
21810;SDS011;11067;48.788;9.208;2023-03-03T19:36:01;37.13;;;20.00;;
21810;SDS011;11067;48.788;9.208;2023-03-03T19:46:54;41.20;;;21.08;;
21810;SDS011;11067;48.788;9.208;2023-03-03T20:03:59;38.15;;;20.52;;
21810;SDS011;11067;48.788;9.208;2023-03-03T20:12:38;37.20;;;20.13;;
21810;SDS011;11067;48.788;9.208;2023-03-03T20:15:40;40.65;;;20.58;;
21810;SDS011;11067;48.788;9.208;2023-03-03T20:18:20;37.27;;;19.57;;
21810;SDS011;11067;48.788;9.208;2023-03-03T20:21:15;35.90;;;19.92;;
21810;SDS011;11067;48.788;9.208;2023-03-03T20:23:53;37.13;;;19.98;;
21810;SDS011;11067;48.788;9.208;2023-03-03T20:26:54;32.40;;;18.40;;